Pagina principală
METAR-TAF:

METAR-TAF

Aeroporturi :

Trent Lott International Airport

Pascagoula, Mississippi, Statele Unite ale Americii

Latitudine: 30-27-49N, longitudine: 088-31-55W, elevație: 5 m

Observații meteo curente

Raportul a fost făcut în urmă cu 54 de minute, la 21:53 UTC
Vânt 4 kt de la Sud/Sud-vest
Temperatură 34°C
Umiditate 47%
Presiune 1016 hPa
Vizibilitate: 16.1 km
Cer senin

METAR: KPQL 222153Z AUTO 20004KT 10SM CLR 34/21 A2999 RMK AO2 SLP155 T03390206

Ora: 17:47 (22:47 UTC)


TAF: lipsă

Observații și prognoze meteo pentru peste 4.000 de aeroporturi (rapoarte METAR și TAF).

Stațiile disponibile sunt reprezentate pe hartă prin puncte galbene și roșii.

Țineți indicatorul mouse-ului pe punctul dorit pentru a vedea denumirea stației.

Apoi, faceți clic pentru a vedea observațiile și prognozele meteorologice.

Pentru a schimba harta: Pentru mărire, faceți clic pe butoanele verzi cu cruce neagră; pentru micșorare, pe butonul verde cu o liniuță; pentru hărți învecinate, pe săgețile verzi.


METAR-TAF: